createdAt,value
2018-10-21T00:00:13.188Z,12.14
2018-10-21T00:02:42.383Z,11.77
2018-10-21T00:05:12.167Z,11.86
2018-10-21T00:07:41.600Z,11.91
2018-10-21T00:10:11.595Z,11.89
2018-10-21T00:12:40.796Z,11.09
2018-10-21T00:15:10.837Z,11.15
2018-10-21T00:17:39.873Z,11.60
2018-10-21T00:20:09.226Z,11.47
2018-10-21T00:22:38.425Z,11.47
2018-10-21T00:25:07.635Z,11.52
2018-10-21T00:27:36.855Z,11.47
2018-10-21T00:30:06.190Z,11.29
2018-10-21T00:32:40.443Z,10.72
2018-10-21T00:35:09.815Z,10.82
2018-10-21T00:37:38.997Z,11.56
2018-10-21T00:40:08.143Z,11.38
2018-10-21T00:42:37.317Z,11.24
2018-10-21T00:45:07.340Z,10.90
2018-10-21T00:47:36.525Z,10.96
2018-10-21T00:50:06.440Z,10.75
2018-10-21T00:52:35.647Z,10.50
2018-10-21T00:55:05.313Z,10.21
2018-10-21T00:57:34.467Z,10.57
2018-10-21T01:00:03.773Z,10.32
2018-10-21T01:02:32.974Z,10.52
2018-10-21T01:05:02.171Z,11.09
2018-10-21T01:07:31.346Z,11.42
2018-10-21T01:10:00.539Z,11.31
2018-10-21T01:12:29.726Z,10.93
2018-10-21T01:14:59.079Z,10.93
2018-10-21T01:17:28.218Z,10.86
2018-10-21T01:19:57.372Z,10.89
2018-10-21T01:22:26.526Z,10.91
2018-10-21T01:24:55.717Z,10.34
2018-10-21T01:27:24.814Z,10.00
2018-10-21T01:29:54.033Z,10.01
2018-10-21T01:32:23.214Z,10.60
2018-10-21T01:34:52.447Z,10.75
2018-10-21T01:37:21.670Z,11.03
2018-10-21T01:40:55.624Z,11.18
2018-10-21T01:43:32.179Z,10.95
2018-10-21T01:46:02.025Z,10.43
2018-10-21T01:48:32.068Z,10.61
2018-10-21T01:51:01.690Z,10.89
2018-10-21T01:53:30.843Z,10.88
2018-10-21T01:56:00.069Z,10.85
2018-10-21T01:58:29.347Z,10.99
2018-10-21T02:00:58.828Z,10.49
2018-10-21T02:03:27.983Z,10.65
2018-10-21T02:05:57.152Z,10.69
2018-10-21T02:08:26.267Z,10.72
2018-10-21T02:10:55.463Z,10.89
2018-10-21T02:13:24.731Z,10.67
2018-10-21T02:15:53.960Z,10.54
2018-10-21T02:18:23.163Z,10.47
2018-10-21T02:20:52.462Z,10.41
2018-10-21T02:23:21.658Z,10.49
2018-10-21T02:25:50.902Z,10.10
2018-10-21T02:28:20.055Z,10.47
2018-10-21T02:30:49.262Z,10.33
2018-10-21T02:33:18.394Z,10.20
2018-10-21T02:35:47.551Z,10.12
2018-10-21T02:38:16.745Z,10.48
2018-10-21T02:41:23.514Z,10.43
2018-10-21T02:43:52.683Z,10.50
2018-10-21T02:46:22.746Z,10.41
2018-10-21T02:48:52.934Z,9.91
2018-10-21T02:51:22.239Z,9.93
2018-10-21T02:53:51.523Z,10.19
2018-10-21T02:56:20.763Z,9.75
2018-10-21T02:58:49.913Z,9.94
2018-10-21T03:01:19.024Z,10.37
2018-10-21T03:03:48.223Z,10.16
2018-10-21T03:06:17.354Z,10.26
2018-10-21T03:08:46.654Z,9.50
2018-10-21T03:11:15.858Z,9.50
2018-10-21T03:13:45.101Z,9.83
2018-10-21T03:16:14.316Z,9.70
2018-10-21T03:18:43.591Z,9.89
2018-10-21T03:21:12.943Z,9.97
2018-10-21T03:23:42.045Z,9.89
2018-10-21T03:26:11.308Z,9.88
2018-10-21T03:28:40.548Z,10.16
2018-10-21T03:31:09.916Z,9.87
2018-10-21T03:33:39.253Z,9.96
2018-10-21T03:36:08.414Z,9.90
2018-10-21T03:38:37.644Z,9.63
2018-10-21T03:41:06.939Z,9.83
2018-10-21T03:43:36.230Z,9.92
2018-10-21T03:46:05.633Z,9.88
2018-10-21T03:48:34.840Z,9.76
2018-10-21T03:51:04.050Z,9.95
2018-10-21T03:53:33.244Z,9.73
2018-10-21T03:56:02.412Z,9.90
2018-10-21T03:58:31.619Z,9.70
2018-10-21T04:01:00.663Z,9.51
2018-10-21T04:03:29.930Z,9.16
2018-10-21T04:05:59.108Z,9.39
2018-10-21T04:08:28.329Z,9.14
2018-10-21T04:10:57.501Z,9.08
2018-10-21T04:13:26.722Z,9.60
2018-10-21T04:15:55.932Z,9.48
2018-10-21T04:18:25.090Z,9.49
2018-10-21T04:20:54.273Z,9.47
2018-10-21T04:23:23.486Z,9.56
2018-10-21T04:25:52.674Z,9.42
2018-10-21T04:28:21.961Z,9.61
2018-10-21T04:30:51.081Z,9.66
2018-10-21T04:33:24.291Z,9.12
2018-10-21T04:35:53.399Z,9.35
2018-10-21T04:38:33.604Z,9.48
2018-10-21T04:41:02.807Z,9.45
2018-10-21T04:43:32.015Z,9.40
2018-10-21T04:46:00.958Z,9.16
2018-10-21T04:48:30.135Z,8.97
2018-10-21T04:50:59.247Z,9.04
2018-10-21T04:53:28.492Z,8.94
2018-10-21T04:55:57.630Z,8.94
2018-10-21T04:58:26.834Z,9.09
2018-10-21T05:00:56.030Z,9.17
2018-10-21T05:03:25.199Z,9.17
2018-10-21T05:05:54.303Z,9.27
2018-10-21T05:08:23.477Z,9.32
2018-10-21T05:10:52.624Z,8.60
2018-10-21T05:13:21.803Z,8.11
2018-10-21T05:15:51.014Z,8.55
2018-10-21T05:18:20.162Z,8.78
2018-10-21T05:20:49.356Z,8.89
2018-10-21T05:23:18.498Z,8.81
2018-10-21T05:25:47.690Z,8.74
2018-10-21T05:28:16.877Z,8.90
2018-10-21T05:30:45.969Z,8.61
2018-10-21T05:33:15.143Z,8.69
2018-10-21T05:35:44.376Z,8.45
2018-10-21T05:38:13.492Z,8.57
2018-10-21T05:40:42.718Z,8.74
2018-10-21T05:43:11.789Z,8.42
2018-10-21T05:45:40.965Z,8.16
2018-10-21T05:48:10.113Z,7.71
2018-10-21T05:50:39.376Z,7.83
2018-10-21T05:53:08.520Z,8.00
2018-10-21T05:55:37.644Z,8.07
2018-10-21T05:58:06.974Z,8.00
2018-10-21T06:00:36.289Z,7.53
2018-10-21T06:03:05.352Z,7.92
2018-10-21T06:05:40.557Z,7.97
2018-10-21T06:08:10.016Z,8.17
2018-10-21T06:10:39.213Z,8.39
2018-10-21T06:13:08.412Z,8.27
2018-10-21T06:15:37.623Z,8.61
2018-10-21T06:18:11.604Z,8.47
2018-10-21T06:20:43.185Z,8.60
2018-10-21T06:23:12.372Z,8.25
2018-10-21T06:25:41.555Z,8.21
2018-10-21T06:28:10.722Z,8.58
2018-10-21T06:30:39.877Z,8.59
2018-10-21T06:33:09.077Z,8.63
2018-10-21T06:35:38.246Z,8.40
2018-10-21T06:38:07.429Z,8.25
2018-10-21T06:40:36.657Z,8.38
2018-10-21T06:43:05.941Z,8.25
2018-10-21T06:45:35.208Z,8.39
2018-10-21T06:48:04.341Z,8.83
2018-10-21T06:50:33.506Z,9.41
2018-10-21T06:53:02.742Z,9.69
2018-10-21T06:55:31.845Z,9.73
2018-10-21T06:58:00.922Z,9.22
2018-10-21T07:00:29.861Z,9.09
2018-10-21T07:02:58.964Z,9.15
2018-10-21T07:05:38.755Z,8.93
2018-10-21T07:08:07.737Z,9.52
2018-10-21T07:10:36.734Z,9.53
2018-10-21T07:13:05.715Z,10.04
2018-10-21T07:15:34.746Z,10.56
2018-10-21T07:18:03.757Z,10.88
2018-10-21T07:20:32.688Z,11.14
2018-10-21T07:23:01.707Z,11.54
2018-10-21T07:25:30.623Z,11.22
2018-10-21T07:27:59.650Z,11.48
2018-10-21T07:30:28.558Z,11.39
2018-10-21T07:32:57.625Z,11.47
2018-10-21T07:35:26.555Z,11.46
2018-10-21T07:37:55.606Z,11.48
2018-10-21T07:40:24.546Z,11.89
2018-10-21T07:42:53.521Z,12.42
2018-10-21T07:45:22.473Z,12.52
2018-10-21T07:47:52.627Z,13.18
2018-10-21T07:50:21.694Z,12.29
2018-10-21T07:52:50.708Z,11.93
2018-10-21T07:55:19.934Z,12.52
2018-10-21T07:57:49.158Z,11.19
2018-10-21T08:00:18.414Z,11.90
2018-10-21T08:02:47.476Z,12.12
2018-10-21T08:05:27.768Z,12.10
2018-10-21T08:08:14.626Z,12.32
2018-10-21T08:10:43.698Z,11.62
2018-10-21T08:13:13.652Z,12.66
2018-10-21T08:15:43.318Z,11.33
2018-10-21T08:18:13.069Z,12.29
2018-10-21T08:20:43.047Z,11.10
2018-10-21T08:23:13.298Z,11.42
2018-10-21T08:25:42.850Z,12.03
2018-10-21T08:28:11.976Z,11.63
2018-10-21T08:30:40.858Z,12.00
2018-10-21T08:33:09.933Z,12.77
2018-10-21T08:35:38.868Z,13.24
2018-10-21T08:38:07.898Z,11.45
2018-10-21T08:40:36.849Z,13.17
2018-10-21T08:43:06.194Z,12.82
2018-10-21T08:45:35.137Z,12.86
2018-10-21T08:48:04.133Z,12.99
2018-10-21T08:50:34.648Z,14.23
2018-10-21T08:53:03.925Z,13.90
2018-10-21T08:55:32.903Z,13.41
2018-10-21T08:58:01.943Z,13.07
2018-10-21T09:00:30.910Z,13.32
2018-10-21T09:02:59.903Z,13.84
2018-10-21T09:05:28.842Z,13.65
2018-10-21T09:07:57.837Z,13.47
2018-10-21T09:10:26.843Z,13.60
2018-10-21T09:12:55.906Z,13.60
2018-10-21T09:15:24.894Z,13.49
2018-10-21T09:17:53.962Z,13.58
2018-10-21T09:20:22.958Z,13.24
2018-10-21T09:22:51.946Z,14.44
2018-10-21T09:25:20.904Z,14.27
2018-10-21T09:27:49.926Z,14.11
2018-10-21T09:30:18.857Z,13.75
2018-10-21T09:32:47.823Z,13.68
2018-10-21T09:35:18.058Z,13.33
2018-10-21T09:37:47.077Z,14.68
2018-10-21T09:40:20.122Z,15.09
2018-10-21T09:42:49.683Z,14.89
2018-10-21T09:45:20.014Z,15.31
2018-10-21T09:47:49.002Z,15.84
2018-10-21T09:50:17.922Z,15.30
2018-10-21T09:52:46.950Z,16.09
2018-10-21T09:55:18.854Z,17.17
2018-10-21T09:57:48.510Z,16.93
2018-10-21T10:00:22.730Z,16.99
2018-10-21T10:02:56.718Z,16.33
2018-10-21T10:05:25.696Z,17.14
2018-10-21T10:07:55.617Z,16.98
2018-10-21T10:10:25.154Z,17.09
2018-10-21T10:12:54.188Z,17.22
2018-10-21T10:15:23.394Z,17.24
2018-10-21T10:17:52.420Z,17.91
2018-10-21T10:20:21.442Z,17.90
2018-10-21T10:22:50.508Z,17.93
2018-10-21T10:25:19.550Z,18.05
2018-10-21T10:27:48.498Z,18.36
2018-10-21T10:30:17.519Z,18.65
2018-10-21T10:32:46.531Z,18.85
2018-10-21T10:35:15.824Z,19.12
2018-10-21T10:37:44.838Z,18.57
2018-10-21T10:40:14.424Z,19.24
2018-10-21T10:42:43.569Z,19.95
2018-10-21T10:45:12.570Z,19.80
2018-10-21T10:47:41.514Z,19.71
2018-10-21T10:50:11.589Z,20.22
2018-10-21T10:52:40.736Z,19.67
2018-10-21T10:55:10.162Z,19.98
2018-10-21T10:57:39.134Z,19.29
2018-10-21T11:00:10.213Z,19.74
2018-10-21T11:02:39.186Z,20.11
2018-10-21T11:05:08.774Z,20.47
2018-10-21T11:07:37.710Z,20.01
2018-10-21T11:10:08.046Z,21.05
2018-10-21T11:12:37.018Z,19.66
2018-10-21T11:15:07.127Z,19.40
2018-10-21T11:17:36.102Z,19.29
2018-10-21T11:20:05.717Z,19.50
2018-10-21T11:22:34.701Z,18.70
2018-10-21T11:25:03.723Z,19.37
2018-10-21T11:27:32.786Z,20.37
2018-10-21T11:30:01.831Z,20.22
2018-10-21T11:32:30.779Z,19.81
2018-10-21T11:35:00.178Z,20.05
2018-10-21T11:37:29.313Z,21.27
2018-10-21T11:39:58.249Z,20.45
2018-10-21T11:42:27.329Z,20.33
2018-10-21T11:44:56.245Z,20.78
2018-10-21T11:47:25.581Z,21.25
2018-10-21T11:49:54.538Z,21.83
2018-10-21T11:52:23.912Z,20.69
2018-10-21T11:54:52.933Z,20.67
2018-10-21T11:57:22.374Z,23.03
2018-10-21T11:59:51.358Z,20.65
2018-10-21T12:02:20.509Z,20.74
2018-10-21T12:04:49.628Z,20.79
2018-10-21T12:07:19.142Z,20.81
2018-10-21T12:09:49.278Z,20.10
2018-10-21T12:12:18.468Z,20.72
2018-10-21T12:14:47.467Z,21.29
2018-10-21T12:17:16.628Z,20.78
2018-10-21T12:19:45.835Z,20.63
2018-10-21T12:22:15.098Z,21.73
2018-10-21T12:24:44.073Z,21.09
2018-10-21T12:27:13.232Z,21.15
2018-10-21T12:29:42.483Z,20.08
2018-10-21T12:32:11.667Z,20.64
2018-10-21T12:34:40.819Z,22.01
2018-10-21T12:37:10.114Z,21.21
2018-10-21T12:39:39.259Z,21.12
2018-10-21T12:42:08.414Z,21.74
2018-10-21T12:44:37.594Z,20.85
2018-10-21T12:47:07.157Z,21.08
2018-10-21T12:49:36.360Z,22.16
2018-10-21T12:52:05.678Z,22.58
2018-10-21T12:54:34.936Z,20.88
2018-10-21T12:57:04.037Z,21.25
2018-10-21T12:59:33.304Z,21.86
2018-10-21T13:02:02.567Z,20.61
2018-10-21T13:04:31.650Z,21.38
2018-10-21T13:07:00.832Z,21.07
2018-10-21T13:09:29.946Z,23.14
2018-10-21T13:11:59.126Z,24.36
2018-10-21T13:14:28.304Z,22.78
2018-10-21T13:16:57.295Z,22.22
2018-10-21T13:19:26.434Z,22.34
2018-10-21T13:21:55.707Z,22.41
2018-10-21T13:24:24.810Z,22.69
2018-10-21T13:26:54.130Z,22.15
2018-10-21T13:29:23.347Z,22.92
2018-10-21T13:31:52.613Z,22.20
2018-10-21T13:34:21.803Z,22.29
2018-10-21T13:36:51.226Z,23.52
2018-10-21T13:39:20.337Z,23.71
2018-10-21T13:41:49.525Z,25.04
2018-10-21T13:44:18.619Z,24.83
2018-10-21T13:46:47.796Z,25.86
2018-10-21T13:49:17.065Z,22.80
2018-10-21T13:51:46.245Z,24.77
2018-10-21T13:54:15.367Z,24.47
2018-10-21T13:56:44.479Z,24.02
2018-10-21T13:59:13.836Z,25.54
2018-10-21T14:01:43.011Z,24.95
2018-10-21T14:04:12.220Z,23.17
2018-10-21T14:06:41.153Z,24.69
2018-10-21T14:09:12.009Z,23.25
2018-10-21T14:11:41.011Z,23.49
2018-10-21T14:14:11.153Z,23.51
2018-10-21T14:16:40.575Z,23.45
2018-10-21T14:19:10.165Z,24.80
2018-10-21T14:21:39.438Z,25.31
2018-10-21T14:24:08.566Z,23.92
2018-10-21T14:26:37.653Z,23.58
2018-10-21T14:29:06.847Z,24.33
2018-10-21T14:31:36.009Z,24.22
2018-10-21T14:34:05.208Z,24.18
2018-10-21T14:36:34.314Z,23.95
2018-10-21T14:39:03.653Z,23.58
2018-10-21T14:41:32.847Z,22.93
2018-10-21T14:44:02.019Z,21.72
2018-10-21T14:46:31.144Z,20.76
2018-10-21T14:49:00.299Z,19.88
2018-10-21T14:51:29.583Z,19.66
2018-10-21T14:53:58.894Z,20.21
2018-10-21T14:56:28.035Z,19.65
2018-10-21T14:58:57.199Z,19.30
2018-10-21T15:01:26.321Z,18.87
2018-10-21T15:03:55.542Z,19.20
2018-10-21T15:06:24.705Z,19.06
2018-10-21T15:08:54.008Z,19.02
2018-10-21T15:11:23.190Z,19.19
2018-10-21T15:13:52.585Z,18.96
2018-10-21T15:16:21.894Z,18.72
2018-10-21T15:18:51.075Z,18.79
2018-10-21T15:21:20.115Z,18.91
2018-10-21T15:23:49.302Z,18.95
2018-10-21T15:26:18.568Z,18.90
2018-10-21T15:28:47.704Z,18.96
2018-10-21T15:31:16.750Z,18.79
2018-10-21T15:33:45.716Z,18.81
2018-10-21T15:36:14.642Z,18.81
2018-10-21T15:38:43.634Z,18.80
2018-10-21T15:41:12.627Z,18.86
2018-10-21T15:43:41.687Z,18.40
2018-10-21T15:46:10.621Z,18.40
2018-10-21T15:48:39.667Z,18.39
2018-10-21T15:51:08.655Z,18.39
2018-10-21T15:53:37.674Z,18.68
2018-10-21T15:56:06.890Z,18.10
2018-10-21T15:58:35.836Z,18.25
2018-10-21T16:01:05.044Z,18.04
2018-10-21T16:03:34.235Z,17.57
2018-10-21T16:06:03.485Z,17.69
2018-10-21T16:08:32.751Z,17.32
2018-10-21T16:11:01.916Z,16.89
2018-10-21T16:13:32.113Z,16.79
2018-10-21T16:16:01.352Z,16.65
2018-10-21T16:18:30.517Z,16.75
2018-10-21T16:20:59.732Z,16.56
2018-10-21T16:23:28.842Z,16.50
2018-10-21T16:25:58.096Z,16.68
2018-10-21T16:28:27.179Z,17.19
2018-10-21T16:30:56.415Z,17.13
2018-10-21T16:33:25.612Z,17.09
2018-10-21T16:35:54.873Z,17.19
2018-10-21T16:38:23.990Z,16.65
2018-10-21T16:40:53.144Z,16.82
2018-10-21T16:43:22.274Z,16.44
2018-10-21T16:45:51.522Z,16.27
2018-10-21T16:48:21.035Z,16.07
2018-10-21T16:50:50.250Z,15.81
2018-10-21T16:53:19.541Z,16.20
2018-10-21T16:55:48.773Z,16.30
2018-10-21T16:58:17.987Z,15.74
2018-10-21T17:00:47.286Z,15.93
2018-10-21T17:03:16.398Z,15.98
2018-10-21T17:05:46.224Z,15.79
2018-10-21T17:08:15.403Z,15.93
2018-10-21T17:10:45.124Z,15.95
2018-10-21T17:13:14.403Z,15.87
2018-10-21T17:15:43.626Z,15.75
2018-10-21T17:18:12.912Z,15.70
2018-10-21T17:20:42.155Z,15.74
2018-10-21T17:23:11.234Z,15.36
2018-10-21T17:25:40.542Z,15.75
2018-10-21T17:28:10.364Z,16.03
2018-10-21T17:30:39.652Z,15.66
2018-10-21T17:33:08.999Z,15.48
2018-10-21T17:35:39.798Z,15.66
2018-10-21T17:38:08.998Z,15.81
2018-10-21T17:40:39.022Z,16.07
2018-10-21T17:43:08.236Z,15.62
2018-10-21T17:45:37.378Z,15.40
2018-10-21T17:48:07.183Z,15.41
2018-10-21T17:50:36.398Z,15.79
2018-10-21T17:53:06.229Z,15.98
2018-10-21T17:55:35.497Z,15.92
2018-10-21T17:58:04.712Z,15.95
2018-10-21T18:00:34.084Z,16.18
2018-10-21T18:03:03.217Z,16.32
2018-10-21T18:05:32.385Z,16.02
2018-10-21T18:08:01.519Z,15.75
2018-10-21T18:10:30.683Z,15.86
2018-10-21T18:12:59.860Z,16.09
2018-10-21T18:15:29.006Z,15.86
2018-10-21T18:17:58.176Z,15.47
2018-10-21T18:20:27.410Z,15.53
2018-10-21T18:22:56.657Z,15.67
2018-10-21T18:25:25.810Z,15.57
2018-10-21T18:27:54.977Z,15.30
2018-10-21T18:30:24.101Z,15.18
2018-10-21T18:32:53.891Z,15.35
2018-10-21T18:35:23.113Z,15.03
2018-10-21T18:37:52.273Z,15.38
2018-10-21T18:40:21.496Z,15.41
2018-10-21T18:42:50.867Z,14.84
2018-10-21T18:45:19.954Z,15.02
2018-10-21T18:47:49.143Z,15.00
2018-10-21T18:50:18.292Z,14.88
2018-10-21T18:52:47.496Z,14.96
2018-10-21T18:55:18.212Z,14.54
2018-10-21T18:57:47.724Z,14.73
2018-10-21T19:00:18.652Z,14.45
2018-10-21T19:02:47.849Z,14.79
2018-10-21T19:05:17.055Z,14.90
2018-10-21T19:07:46.245Z,14.88
2018-10-21T19:10:16.313Z,14.92
2018-10-21T19:12:45.577Z,14.56
2018-10-21T19:15:14.972Z,14.65
2018-10-21T19:17:44.384Z,14.35
2018-10-21T19:20:15.016Z,14.42
2018-10-21T19:22:44.209Z,14.16
2018-10-21T19:25:14.820Z,14.37
2018-10-21T19:27:45.040Z,14.29
2018-10-21T19:30:14.829Z,14.27
2018-10-21T19:32:44.267Z,14.36
2018-10-21T19:35:14.639Z,14.47
2018-10-21T19:37:43.761Z,14.12
2018-10-21T19:40:14.172Z,14.39
2018-10-21T19:42:43.826Z,14.27
2018-10-21T19:45:13.561Z,14.19
2018-10-21T19:47:43.056Z,13.99
2018-10-21T19:50:13.387Z,14.23
2018-10-21T19:52:43.171Z,14.03
2018-10-21T19:55:12.579Z,13.83
2018-10-21T19:57:42.124Z,13.84
2018-10-21T20:00:13.667Z,13.77
2018-10-21T20:02:43.449Z,13.18
2018-10-21T20:05:12.655Z,13.33
2018-10-21T20:07:42.053Z,13.56
2018-10-21T20:10:13.160Z,13.96
2018-10-21T20:12:42.303Z,13.82
2018-10-21T20:15:12.334Z,13.79
2018-10-21T20:17:41.704Z,13.88
2018-10-21T20:20:11.715Z,13.76
2018-10-21T20:22:41.015Z,13.64
2018-10-21T20:25:11.003Z,13.83
2018-10-21T20:27:40.226Z,13.42
2018-10-21T20:30:10.494Z,13.23
2018-10-21T20:32:39.706Z,13.34
2018-10-21T20:35:09.594Z,13.53
2018-10-21T20:37:38.818Z,13.49
2018-10-21T20:40:09.346Z,13.46
2018-10-21T20:42:38.988Z,13.47
2018-10-21T20:45:10.166Z,13.15
2018-10-21T20:47:39.334Z,13.17
2018-10-21T20:50:08.594Z,13.54
2018-10-21T20:52:37.774Z,13.33
2018-10-21T20:55:07.471Z,13.29
2018-10-21T20:57:36.748Z,13.16
2018-10-21T21:00:06.850Z,13.08
2018-10-21T21:02:36.063Z,13.01
2018-10-21T21:05:05.692Z,12.94
2018-10-21T21:07:34.959Z,13.16
2018-10-21T21:10:04.472Z,12.94
2018-10-21T21:12:33.593Z,13.08
2018-10-21T21:15:02.808Z,13.01
2018-10-21T21:17:31.919Z,12.83
2018-10-21T21:20:01.051Z,12.61
2018-10-21T21:22:30.364Z,12.64
2018-10-21T21:24:59.620Z,12.98
2018-10-21T21:27:28.706Z,12.75
2018-10-21T21:29:57.959Z,12.69
2018-10-21T21:32:27.190Z,12.64
2018-10-21T21:34:56.385Z,12.60
2018-10-21T21:37:25.794Z,12.74
2018-10-21T21:39:55.095Z,12.72
2018-10-21T21:42:24.395Z,12.40
2018-10-21T21:44:53.777Z,12.68
2018-10-21T21:47:22.902Z,12.56
2018-10-21T21:49:52.173Z,12.47
2018-10-21T21:52:21.360Z,12.24
2018-10-21T21:54:50.492Z,12.19
2018-10-21T21:57:19.640Z,12.34
2018-10-21T21:59:48.717Z,12.50
2018-10-21T22:02:17.694Z,12.36
2018-10-21T22:04:46.658Z,12.46
2018-10-21T22:07:15.638Z,12.78
2018-10-21T22:09:44.656Z,12.49
2018-10-21T22:12:13.733Z,12.47
2018-10-21T22:14:42.686Z,12.30
2018-10-21T22:17:11.603Z,12.15
2018-10-21T22:19:40.596Z,12.07
2018-10-21T22:22:09.639Z,12.15
2018-10-21T22:24:38.618Z,12.20
2018-10-21T22:27:07.605Z,12.07
2018-10-21T22:29:36.637Z,11.97
2018-10-21T22:32:05.768Z,11.94
2018-10-21T22:34:35.641Z,11.93
2018-10-21T22:37:04.815Z,12.26
2018-10-21T22:39:33.884Z,11.93
2018-10-21T22:42:04.254Z,12.09
2018-10-21T22:44:33.244Z,11.97
2018-10-21T22:47:02.216Z,11.86
2018-10-21T22:49:31.161Z,11.77
2018-10-21T22:52:00.265Z,11.84
2018-10-21T22:54:29.248Z,12.04
2018-10-21T22:56:58.225Z,11.85
2018-10-21T22:59:27.189Z,11.83
2018-10-21T23:01:56.173Z,11.61
2018-10-21T23:04:25.117Z,11.62
2018-10-21T23:06:54.084Z,11.48
2018-10-21T23:09:23.009Z,11.72
2018-10-21T23:11:52.004Z,11.74
2018-10-21T23:14:20.965Z,11.42
2018-10-21T23:16:50.003Z,11.42
2018-10-21T23:19:45.078Z,11.32
2018-10-21T23:22:14.096Z,11.26
2018-10-21T23:24:43.107Z,11.24
2018-10-21T23:27:12.737Z,11.52
2018-10-21T23:29:42.393Z,10.83
2018-10-21T23:32:11.366Z,11.13
2018-10-21T23:34:40.310Z,10.96
2018-10-21T23:37:09.298Z,11.12
2018-10-21T23:39:38.293Z,11.24
2018-10-21T23:42:07.379Z,11.23
2018-10-21T23:44:36.402Z,11.28
2018-10-21T23:47:05.492Z,11.27
2018-10-21T23:49:34.434Z,11.33
2018-10-21T23:52:03.457Z,11.12
2018-10-21T23:54:32.416Z,10.89
2018-10-21T23:57:04.477Z,10.94
2018-10-21T23:59:33.787Z,10.95
